sensor_id;sensor_type;location;lat;lon;timestamp;P1;durP1;ratioP1;P2;durP2;ratioP2
79025;SDS011;71097;44.760;37.726;2023-11-21T00:00:25;13.25;;;8.77;;
79025;SDS011;71097;44.760;37.726;2023-11-21T00:01:27;13.40;;;8.18;;
79025;SDS011;71097;44.760;37.726;2023-11-21T00:02:28;13.48;;;9.07;;
79025;SDS011;71097;44.760;37.726;2023-11-21T00:03:30;11.38;;;7.88;;
79025;SDS011;71097;44.760;37.726;2023-11-21T00:04:32;10.27;;;7.15;;
79025;SDS011;71097;44.760;37.726;2023-11-21T00:05:33;10.20;;;6.78;;
79025;SDS011;71097;44.760;37.726;2023-11-21T00:06:36;12.20;;;7.88;;
79025;SDS011;71097;44.760;37.726;2023-11-21T00:07:37;12.30;;;7.47;;
79025;SDS011;71097;44.760;37.726;2023-11-21T00:08:39;11.82;;;8.13;;
79025;SDS011;71097;44.760;37.726;2023-11-21T00:09:41;12.18;;;7.20;;
79025;SDS011;71097;44.760;37.726;2023-11-21T00:10:42;11.40;;;7.68;;
79025;SDS011;71097;44.760;37.726;2023-11-21T00:11:45;10.90;;;7.05;;
79025;SDS011;71097;44.760;37.726;2023-11-21T00:12:46;13.77;;;8.70;;
79025;SDS011;71097;44.760;37.726;2023-11-21T00:13:49;11.88;;;7.50;;
79025;SDS011;71097;44.760;37.726;2023-11-21T00:14:51;12.43;;;8.93;;
79025;SDS011;71097;44.760;37.726;2023-11-21T00:15:52;10.80;;;7.07;;
79025;SDS011;71097;44.760;37.726;2023-11-21T00:16:54;12.40;;;8.32;;
79025;SDS011;71097;44.760;37.726;2023-11-21T00:17:55;13.02;;;8.75;;
79025;SDS011;71097;44.760;37.726;2023-11-21T00:18:57;13.57;;;8.75;;
79025;SDS011;71097;44.760;37.726;2023-11-21T00:19:58;13.45;;;8.07;;
79025;SDS011;71097;44.760;37.726;2023-11-21T00:21:00;12.18;;;7.97;;
79025;SDS011;71097;44.760;37.726;2023-11-21T00:22:01;13.18;;;9.13;;
79025;SDS011;71097;44.760;37.726;2023-11-21T00:23:03;13.40;;;8.85;;
79025;SDS011;71097;44.760;37.726;2023-11-21T00:24:04;14.02;;;8.57;;
79025;SDS011;71097;44.760;37.726;2023-11-21T00:25:06;14.95;;;8.55;;
79025;SDS011;71097;44.760;37.726;2023-11-21T00:26:09;13.82;;;8.73;;
79025;SDS011;71097;44.760;37.726;2023-11-21T00:27:11;12.52;;;8.30;;
79025;SDS011;71097;44.760;37.726;2023-11-21T00:28:12;12.80;;;8.43;;
79025;SDS011;71097;44.760;37.726;2023-11-21T00:29:14;13.73;;;8.50;;
79025;SDS011;71097;44.760;37.726;2023-11-21T00:31:20;14.05;;;8.00;;
79025;SDS011;71097;44.760;37.726;2023-11-21T00:32:22;11.70;;;8.60;;
79025;SDS011;71097;44.760;37.726;2023-11-21T00:33:24;12.88;;;8.15;;
79025;SDS011;71097;44.760;37.726;2023-11-21T00:34:26;12.10;;;7.95;;
79025;SDS011;71097;44.760;37.726;2023-11-21T00:35:29;13.43;;;8.77;;
79025;SDS011;71097;44.760;37.726;2023-11-21T00:36:31;12.15;;;8.25;;
79025;SDS011;71097;44.760;37.726;2023-11-21T00:37:33;11.88;;;8.43;;
79025;SDS011;71097;44.760;37.726;2023-11-21T00:38:35;14.10;;;8.93;;
79025;SDS011;71097;44.760;37.726;2023-11-21T00:39:37;14.68;;;8.52;;
79025;SDS011;71097;44.760;37.726;2023-11-21T00:40:38;11.55;;;7.43;;
79025;SDS011;71097;44.760;37.726;2023-11-21T00:41:40;14.05;;;8.27;;
79025;SDS011;71097;44.760;37.726;2023-11-21T00:42:41;12.93;;;8.35;;
79025;SDS011;71097;44.760;37.726;2023-11-21T00:43:43;11.98;;;8.02;;
79025;SDS011;71097;44.760;37.726;2023-11-21T00:44:45;15.68;;;8.38;;
79025;SDS011;71097;44.760;37.726;2023-11-21T00:45:47;12.63;;;8.05;;
79025;SDS011;71097;44.760;37.726;2023-11-21T00:46:50;11.55;;;8.20;;
79025;SDS011;71097;44.760;37.726;2023-11-21T00:47:51;11.77;;;7.70;;
79025;SDS011;71097;44.760;37.726;2023-11-21T00:48:53;12.70;;;8.35;;
79025;SDS011;71097;44.760;37.726;2023-11-21T00:49:55;12.60;;;8.77;;
79025;SDS011;71097;44.760;37.726;2023-11-21T00:50:57;13.30;;;9.23;;
79025;SDS011;71097;44.760;37.726;2023-11-21T00:51:59;13.48;;;8.82;;
79025;SDS011;71097;44.760;37.726;2023-11-21T00:53:01;14.32;;;9.68;;
79025;SDS011;71097;44.760;37.726;2023-11-21T00:54:03;14.88;;;9.13;;
79025;SDS011;71097;44.760;37.726;2023-11-21T00:55:05;14.00;;;8.93;;
79025;SDS011;71097;44.760;37.726;2023-11-21T00:56:08;14.25;;;9.35;;
79025;SDS011;71097;44.760;37.726;2023-11-21T00:57:09;13.13;;;8.85;;
79025;SDS011;71097;44.760;37.726;2023-11-21T00:58:12;15.00;;;9.57;;
79025;SDS011;71097;44.760;37.726;2023-11-21T00:59:14;14.43;;;9.20;;
79025;SDS011;71097;44.760;37.726;2023-11-21T01:00:16;15.90;;;9.43;;
79025;SDS011;71097;44.760;37.726;2023-11-21T01:01:18;14.40;;;8.68;;
79025;SDS011;71097;44.760;37.726;2023-11-21T01:02:20;12.43;;;8.75;;
79025;SDS011;71097;44.760;37.726;2023-11-21T01:03:22;14.30;;;9.70;;
79025;SDS011;71097;44.760;37.726;2023-11-21T01:04:23;12.98;;;8.93;;
79025;SDS011;71097;44.760;37.726;2023-11-21T01:05:25;15.15;;;9.48;;
79025;SDS011;71097;44.760;37.726;2023-11-21T01:06:27;13.43;;;9.80;;
79025;SDS011;71097;44.760;37.726;2023-11-21T01:07:29;14.25;;;9.48;;
79025;SDS011;71097;44.760;37.726;2023-11-21T01:08:30;14.63;;;9.38;;
79025;SDS011;71097;44.760;37.726;2023-11-21T01:09:32;15.10;;;10.07;;
79025;SDS011;71097;44.760;37.726;2023-11-21T01:10:34;16.45;;;10.02;;
79025;SDS011;71097;44.760;37.726;2023-11-21T01:11:36;15.38;;;9.80;;
79025;SDS011;71097;44.760;37.726;2023-11-21T01:12:38;14.82;;;10.43;;
79025;SDS011;71097;44.760;37.726;2023-11-21T01:13:40;15.38;;;10.13;;
79025;SDS011;71097;44.760;37.726;2023-11-21T01:14:43;16.55;;;10.00;;
79025;SDS011;71097;44.760;37.726;2023-11-21T01:15:46;13.18;;;9.07;;
79025;SDS011;71097;44.760;37.726;2023-11-21T01:16:48;17.17;;;10.98;;
79025;SDS011;71097;44.760;37.726;2023-11-21T01:17:50;16.42;;;9.60;;
79025;SDS011;71097;44.760;37.726;2023-11-21T01:18:51;15.82;;;10.98;;
79025;SDS011;71097;44.760;37.726;2023-11-21T01:19:53;15.65;;;11.05;;
79025;SDS011;71097;44.760;37.726;2023-11-21T01:20:54;14.98;;;9.60;;
79025;SDS011;71097;44.760;37.726;2023-11-21T01:21:56;16.83;;;10.52;;
79025;SDS011;71097;44.760;37.726;2023-11-21T01:22:59;12.45;;;9.02;;
79025;SDS011;71097;44.760;37.726;2023-11-21T01:24:02;13.73;;;8.98;;
79025;SDS011;71097;44.760;37.726;2023-11-21T01:25:04;18.38;;;10.70;;
79025;SDS011;71097;44.760;37.726;2023-11-21T01:28:12;17.60;;;9.73;;
79025;SDS011;71097;44.760;37.726;2023-11-21T01:29:15;16.63;;;9.60;;
79025;SDS011;71097;44.760;37.726;2023-11-21T01:30:17;14.32;;;8.35;;
79025;SDS011;71097;44.760;37.726;2023-11-21T01:31:19;15.25;;;8.77;;
79025;SDS011;71097;44.760;37.726;2023-11-21T01:32:21;15.15;;;9.65;;
79025;SDS011;71097;44.760;37.726;2023-11-21T01:33:23;14.57;;;9.48;;
79025;SDS011;71097;44.760;37.726;2023-11-21T01:34:26;14.02;;;8.75;;
79025;SDS011;71097;44.760;37.726;2023-11-21T01:35:28;14.68;;;9.05;;
79025;SDS011;71097;44.760;37.726;2023-11-21T01:36:30;12.85;;;8.32;;
79025;SDS011;71097;44.760;37.726;2023-11-21T01:37:38;12.88;;;8.82;;
79025;SDS011;71097;44.760;37.726;2023-11-21T01:38:40;13.35;;;9.27;;
79025;SDS011;71097;44.760;37.726;2023-11-21T01:39:43;13.32;;;8.65;;
79025;SDS011;71097;44.760;37.726;2023-11-21T01:40:45;13.82;;;8.68;;
79025;SDS011;71097;44.760;37.726;2023-11-21T01:41:46;13.07;;;7.93;;
79025;SDS011;71097;44.760;37.726;2023-11-21T01:42:48;11.18;;;7.88;;
79025;SDS011;71097;44.760;37.726;2023-11-21T01:43:49;11.77;;;7.53;;
79025;SDS011;71097;44.760;37.726;2023-11-21T01:44:52;12.32;;;7.70;;
79025;SDS011;71097;44.760;37.726;2023-11-21T01:45:55;12.32;;;7.72;;
79025;SDS011;71097;44.760;37.726;2023-11-21T01:47:00;11.48;;;7.43;;
79025;SDS011;71097;44.760;37.726;2023-11-21T01:48:05;10.68;;;6.75;;
79025;SDS011;71097;44.760;37.726;2023-11-21T01:49:07;11.45;;;6.75;;
79025;SDS011;71097;44.760;37.726;2023-11-21T01:50:14;13.27;;;7.78;;
79025;SDS011;71097;44.760;37.726;2023-11-21T01:51:18;10.73;;;6.88;;
79025;SDS011;71097;44.760;37.726;2023-11-21T01:52:19;14.63;;;8.13;;
79025;SDS011;71097;44.760;37.726;2023-11-21T01:53:21;11.30;;;8.00;;
79025;SDS011;71097;44.760;37.726;2023-11-21T01:54:25;14.25;;;8.23;;
79025;SDS011;71097;44.760;37.726;2023-11-21T01:55:27;11.55;;;7.28;;
79025;SDS011;71097;44.760;37.726;2023-11-21T01:56:30;11.90;;;7.32;;
79025;SDS011;71097;44.760;37.726;2023-11-21T01:57:33;12.45;;;7.57;;
79025;SDS011;71097;44.760;37.726;2023-11-21T01:58:34;12.32;;;7.93;;
79025;SDS011;71097;44.760;37.726;2023-11-21T01:59:37;11.95;;;8.00;;
79025;SDS011;71097;44.760;37.726;2023-11-21T02:00:39;11.55;;;7.82;;
79025;SDS011;71097;44.760;37.726;2023-11-21T02:01:40;12.38;;;7.60;;
79025;SDS011;71097;44.760;37.726;2023-11-21T02:02:43;15.27;;;7.82;;
79025;SDS011;71097;44.760;37.726;2023-11-21T02:03:45;13.93;;;8.43;;
79025;SDS011;71097;44.760;37.726;2023-11-21T02:04:46;13.68;;;8.35;;
79025;SDS011;71097;44.760;37.726;2023-11-21T02:05:48;15.40;;;9.18;;
79025;SDS011;71097;44.760;37.726;2023-11-21T02:06:49;13.98;;;8.85;;
79025;SDS011;71097;44.760;37.726;2023-11-21T02:07:51;13.48;;;8.10;;
79025;SDS011;71097;44.760;37.726;2023-11-21T02:08:53;13.10;;;9.10;;
79025;SDS011;71097;44.760;37.726;2023-11-21T02:09:54;15.98;;;9.70;;
79025;SDS011;71097;44.760;37.726;2023-11-21T02:10:56;13.13;;;8.15;;
79025;SDS011;71097;44.760;37.726;2023-11-21T02:11:58;12.10;;;8.38;;
79025;SDS011;71097;44.760;37.726;2023-11-21T02:13:00;13.65;;;9.25;;
79025;SDS011;71097;44.760;37.726;2023-11-21T02:14:03;13.88;;;9.07;;
79025;SDS011;71097;44.760;37.726;2023-11-21T02:15:08;13.88;;;9.10;;
79025;SDS011;71097;44.760;37.726;2023-11-21T02:16:17;13.65;;;9.23;;
79025;SDS011;71097;44.760;37.726;2023-11-21T02:17:19;14.57;;;8.95;;
79025;SDS011;71097;44.760;37.726;2023-11-21T02:18:21;15.55;;;8.93;;
79025;SDS011;71097;44.760;37.726;2023-11-21T02:19:23;17.33;;;9.98;;
79025;SDS011;71097;44.760;37.726;2023-11-21T02:20:26;14.70;;;9.00;;
79025;SDS011;71097;44.760;37.726;2023-11-21T02:21:30;14.27;;;9.70;;
79025;SDS011;71097;44.760;37.726;2023-11-21T02:22:32;16.80;;;9.70;;
79025;SDS011;71097;44.760;37.726;2023-11-21T02:23:38;14.43;;;9.70;;
79025;SDS011;71097;44.760;37.726;2023-11-21T02:24:43;13.65;;;9.07;;
79025;SDS011;71097;44.760;37.726;2023-11-21T02:25:44;15.20;;;9.50;;
79025;SDS011;71097;44.760;37.726;2023-11-21T02:26:46;16.45;;;10.25;;
79025;SDS011;71097;44.760;37.726;2023-11-21T02:27:47;17.50;;;11.52;;
79025;SDS011;71097;44.760;37.726;2023-11-21T02:28:49;17.58;;;10.70;;
79025;SDS011;71097;44.760;37.726;2023-11-21T02:29:50;18.52;;;10.10;;
79025;SDS011;71097;44.760;37.726;2023-11-21T02:30:52;14.98;;;9.73;;
79025;SDS011;71097;44.760;37.726;2023-11-21T02:31:57;17.73;;;10.75;;
79025;SDS011;71097;44.760;37.726;2023-11-21T02:32:59;14.55;;;8.40;;
79025;SDS011;71097;44.760;37.726;2023-11-21T02:34:02;17.67;;;11.10;;
79025;SDS011;71097;44.760;37.726;2023-11-21T02:35:04;14.70;;;9.55;;
79025;SDS011;71097;44.760;37.726;2023-11-21T02:36:08;14.73;;;8.95;;
79025;SDS011;71097;44.760;37.726;2023-11-21T02:37:10;15.88;;;9.35;;
79025;SDS011;71097;44.760;37.726;2023-11-21T02:38:12;15.88;;;10.43;;
79025;SDS011;71097;44.760;37.726;2023-11-21T02:39:14;14.07;;;9.57;;
79025;SDS011;71097;44.760;37.726;2023-11-21T02:40:17;14.80;;;11.35;;
79025;SDS011;71097;44.760;37.726;2023-11-21T02:41:19;17.70;;;10.32;;
79025;SDS011;71097;44.760;37.726;2023-11-21T02:42:21;18.73;;;10.38;;
79025;SDS011;71097;44.760;37.726;2023-11-21T02:43:22;16.33;;;10.07;;
79025;SDS011;71097;44.760;37.726;2023-11-21T02:44:24;16.40;;;9.55;;
79025;SDS011;71097;44.760;37.726;2023-11-21T02:45:27;14.38;;;9.65;;
79025;SDS011;71097;44.760;37.726;2023-11-21T02:46:28;17.00;;;10.15;;
79025;SDS011;71097;44.760;37.726;2023-11-21T02:47:30;16.27;;;9.57;;
79025;SDS011;71097;44.760;37.726;2023-11-21T02:48:31;15.27;;;9.88;;
79025;SDS011;71097;44.760;37.726;2023-11-21T02:49:33;13.02;;;8.50;;
79025;SDS011;71097;44.760;37.726;2023-11-21T02:50:36;15.77;;;9.65;;
79025;SDS011;71097;44.760;37.726;2023-11-21T02:51:38;15.55;;;10.15;;
79025;SDS011;71097;44.760;37.726;2023-11-21T02:52:40;17.55;;;10.40;;
79025;SDS011;71097;44.760;37.726;2023-11-21T02:53:42;14.68;;;10.15;;
79025;SDS011;71097;44.760;37.726;2023-11-21T02:54:43;14.95;;;10.10;;
79025;SDS011;71097;44.760;37.726;2023-11-21T02:55:45;17.05;;;9.98;;
79025;SDS011;71097;44.760;37.726;2023-11-21T02:56:46;15.90;;;10.02;;
79025;SDS011;71097;44.760;37.726;2023-11-21T02:57:48;13.77;;;8.82;;
79025;SDS011;71097;44.760;37.726;2023-11-21T02:58:49;15.27;;;9.68;;
79025;SDS011;71097;44.760;37.726;2023-11-21T02:59:51;15.63;;;9.38;;
79025;SDS011;71097;44.760;37.726;2023-11-21T03:00:52;13.32;;;8.63;;
79025;SDS011;71097;44.760;37.726;2023-11-21T03:01:55;15.63;;;10.13;;
79025;SDS011;71097;44.760;37.726;2023-11-21T03:02:58;17.45;;;9.25;;
79025;SDS011;71097;44.760;37.726;2023-11-21T03:04:00;13.40;;;9.23;;
79025;SDS011;71097;44.760;37.726;2023-11-21T03:05:03;18.33;;;9.63;;
79025;SDS011;71097;44.760;37.726;2023-11-21T03:06:06;14.27;;;8.15;;
79025;SDS011;71097;44.760;37.726;2023-11-21T03:07:08;17.15;;;9.57;;
79025;SDS011;71097;44.760;37.726;2023-11-21T03:08:10;13.77;;;9.20;;
79025;SDS011;71097;44.760;37.726;2023-11-21T03:09:12;16.20;;;9.27;;
79025;SDS011;71097;44.760;37.726;2023-11-21T03:10:13;15.45;;;9.05;;
79025;SDS011;71097;44.760;37.726;2023-11-21T03:11:15;14.57;;;8.73;;
79025;SDS011;71097;44.760;37.726;2023-11-21T03:12:16;15.98;;;9.23;;
79025;SDS011;71097;44.760;37.726;2023-11-21T03:13:18;13.75;;;8.07;;
79025;SDS011;71097;44.760;37.726;2023-11-21T03:14:19;14.20;;;8.98;;
79025;SDS011;71097;44.760;37.726;2023-11-21T03:15:21;14.98;;;8.00;;
79025;SDS011;71097;44.760;37.726;2023-11-21T03:16:22;16.02;;;9.45;;
79025;SDS011;71097;44.760;37.726;2023-11-21T03:17:23;13.18;;;8.50;;
79025;SDS011;71097;44.760;37.726;2023-11-21T03:18:25;14.60;;;9.07;;
79025;SDS011;71097;44.760;37.726;2023-11-21T03:19:27;16.17;;;10.43;;
79025;SDS011;71097;44.760;37.726;2023-11-21T03:20:28;16.45;;;10.60;;
79025;SDS011;71097;44.760;37.726;2023-11-21T03:21:31;15.40;;;10.02;;
79025;SDS011;71097;44.760;37.726;2023-11-21T03:22:33;16.80;;;10.25;;
79025;SDS011;71097;44.760;37.726;2023-11-21T03:23:35;14.93;;;10.18;;
79025;SDS011;71097;44.760;37.726;2023-11-21T03:24:38;18.88;;;10.77;;
79025;SDS011;71097;44.760;37.726;2023-11-21T03:25:40;14.18;;;9.07;;
79025;SDS011;71097;44.760;37.726;2023-11-21T03:26:44;18.98;;;11.50;;
79025;SDS011;71097;44.760;37.726;2023-11-21T03:27:47;15.07;;;9.75;;
79025;SDS011;71097;44.760;37.726;2023-11-21T03:28:48;15.90;;;9.27;;
79025;SDS011;71097;44.760;37.726;2023-11-21T03:29:50;16.25;;;10.35;;
79025;SDS011;71097;44.760;37.726;2023-11-21T05:03:40;16.85;;;10.57;;
79025;SDS011;71097;44.760;37.726;2023-11-21T05:04:42;19.27;;;12.20;;
79025;SDS011;71097;44.760;37.726;2023-11-21T12:50:08;9.52;;;4.90;;
79025;SDS011;71097;44.760;37.726;2023-11-21T12:54:41;11.73;;;7.03;;
79025;SDS011;71097;44.760;37.726;2023-11-21T13:13:39;14.88;;;6.00;;
79025;SDS011;71097;44.760;37.726;2023-11-21T13:16:20;13.23;;;6.68;;
79025;SDS011;71097;44.760;37.726;2023-11-21T13:20:43;12.30;;;7.57;;
79025;SDS011;71097;44.760;37.726;2023-11-21T13:26:41;12.25;;;6.65;;
79025;SDS011;71097;44.760;37.726;2023-11-21T13:28:34;12.73;;;8.10;;
79025;SDS011;71097;44.760;37.726;2023-11-21T13:30:50;10.55;;;5.10;;
79025;SDS011;71097;44.760;37.726;2023-11-21T13:32:12;11.10;;;5.53;;
79025;SDS011;71097;44.760;37.726;2023-11-21T13:33:27;9.95;;;6.25;;
79025;SDS011;71097;44.760;37.726;2023-11-21T13:37:36;11.65;;;6.60;;
79025;SDS011;71097;44.760;37.726;2023-11-21T13:40:00;12.20;;;7.72;;
79025;SDS011;71097;44.760;37.726;2023-11-21T13:41:34;10.07;;;6.53;;
79025;SDS011;71097;44.760;37.726;2023-11-21T13:42:50;10.27;;;7.05;;
79025;SDS011;71097;44.760;37.726;2023-11-21T13:44:33;11.82;;;6.57;;
79025;SDS011;71097;44.760;37.726;2023-11-21T13:46:35;13.02;;;7.70;;
79025;SDS011;71097;44.760;37.726;2023-11-21T13:58:50;14.60;;;6.03;;
79025;SDS011;71097;44.760;37.726;2023-11-21T14:04:04;13.80;;;6.00;;
79025;SDS011;71097;44.760;37.726;2023-11-21T14:06:01;10.18;;;6.05;;
79025;SDS011;71097;44.760;37.726;2023-11-21T14:07:54;8.68;;;6.20;;
79025;SDS011;71097;44.760;37.726;2023-11-21T14:09:24;13.40;;;6.60;;
79025;SDS011;71097;44.760;37.726;2023-11-21T14:11:02;9.48;;;6.20;;
79025;SDS011;71097;44.760;37.726;2023-11-21T18:43:34;34.65;;;13.68;;
79025;SDS011;71097;44.760;37.726;2023-11-21T18:45:28;35.88;;;13.45;;
79025;SDS011;71097;44.760;37.726;2023-11-21T18:46:56;46.88;;;13.18;;
79025;SDS011;71097;44.760;37.726;2023-11-21T18:49:18;33.33;;;13.88;;
79025;SDS011;71097;44.760;37.726;2023-11-21T18:51:33;33.85;;;12.23;;
79025;SDS011;71097;44.760;37.726;2023-11-21T19:02:48;41.67;;;15.55;;
79025;SDS011;71097;44.760;37.726;2023-11-21T19:08:32;37.35;;;12.32;;
79025;SDS011;71097;44.760;37.726;2023-11-21T19:14:36;49.83;;;16.00;;
79025;SDS011;71097;44.760;37.726;2023-11-21T19:15:59;38.67;;;15.23;;
79025;SDS011;71097;44.760;37.726;2023-11-21T19:17:40;33.40;;;14.73;;
79025;SDS011;71097;44.760;37.726;2023-11-21T19:19:59;42.08;;;14.32;;
79025;SDS011;71097;44.760;37.726;2023-11-21T19:22:10;37.58;;;14.35;;
79025;SDS011;71097;44.760;37.726;2023-11-21T19:25:19;44.70;;;15.38;;
79025;SDS011;71097;44.760;37.726;2023-11-21T19:27:58;39.83;;;12.43;;
79025;SDS011;71097;44.760;37.726;2023-11-21T19:29:57;32.28;;;12.73;;
79025;SDS011;71097;44.760;37.726;2023-11-21T19:32:17;32.17;;;11.43;;
79025;SDS011;71097;44.760;37.726;2023-11-21T19:34:58;31.85;;;12.07;;
79025;SDS011;71097;44.760;37.726;2023-11-21T19:37:56;25.55;;;10.80;;
79025;SDS011;71097;44.760;37.726;2023-11-21T19:40:16;26.08;;;11.20;;
79025;SDS011;71097;44.760;37.726;2023-11-21T19:42:11;42.25;;;12.45;;
79025;SDS011;71097;44.760;37.726;2023-11-21T19:44:19;26.40;;;11.15;;
79025;SDS011;71097;44.760;37.726;2023-11-21T19:46:03;31.92;;;11.85;;
79025;SDS011;71097;44.760;37.726;2023-11-21T19:53:12;32.90;;;13.52;;
79025;SDS011;71097;44.760;37.726;2023-11-21T20:00:14;28.40;;;14.90;;
79025;SDS011;71097;44.760;37.726;2023-11-21T20:06:20;29.10;;;11.40;;
79025;SDS011;71097;44.760;37.726;2023-11-21T20:20:56;45.90;;;13.95;;
79025;SDS011;71097;44.760;37.726;2023-11-21T20:43:44;44.67;;;26.17;;
79025;SDS011;71097;44.760;37.726;2023-11-21T21:21:42;22.02;;;10.85;;
79025;SDS011;71097;44.760;37.726;2023-11-21T21:31:51;21.33;;;10.40;;
79025;SDS011;71097;44.760;37.726;2023-11-21T21:46:22;23.08;;;12.57;;
79025;SDS011;71097;44.760;37.726;2023-11-21T22:40:04;22.58;;;10.60;;
79025;SDS011;71097;44.760;37.726;2023-11-21T22:45:20;22.55;;;10.43;;
79025;SDS011;71097;44.760;37.726;2023-11-21T22:47:15;20.63;;;10.40;;
79025;SDS011;71097;44.760;37.726;2023-11-21T22:49:47;19.33;;;9.80;;
79025;SDS011;71097;44.760;37.726;2023-11-21T23:26:33;20.80;;;10.45;;
79025;SDS011;71097;44.760;37.726;2023-11-21T23:43:36;18.13;;;10.15;;
79025;SDS011;71097;44.760;37.726;2023-11-21T23:47:00;21.95;;;11.68;;
